Aérodrome :
LOGIN :

S'inscrire | Disclaimer

   EN    FR    IT 

 










Légende :    VFR   VFR Marginal   IFR   IFR Intensif   IFR Très Intensif
Visi : 
Plafond : 
>= 8 km
>= 3000ft
5 à 8 km
1000 à 3000 ft
1500m à 5 km
500 à 1000 ft
800 à 1500m
200 à 500 ft
< 800m
< 200 ft
Symboles :   Orages  Brouillard  Fortes neiges  Fortes précipitations  Vent > 20 kt
SIGMETs :   Divers  Orages  Givrage  Turbulence  Onde Orograph.  Cendres Volcan.






- Altitude de l'aérodrome : 255 ft


ENGC - Gullfaks C oil platform

DERNIER METAR :
  • 061950Z 32020KT 9999 -SHRA SCT020 BKN025 BKN100 04/00 Q0989 W06/S5

METARs EXPIRÉS :
  • 061850Z 32017KT 9999 FEW020 SCT060 BKN110 05/00 Q0988 W06/S5
  • 061820Z 33016KT 9999 FEW020 SCT030 BKN060 05/01 Q0988 W06/S5
  • 061750Z 33018KT 9999 -SHRA SCT025 BKN045 05/M01 Q0988 W06/S5

TAF TAF ENGC
Valide du 06 à 18h jusqu'au 07 à 18h UTC


0618/0718 32018KT 9999 FEW020TCU SCT040
TEMPO 0620/0706 SHRA BKN014CB
BECMG 0701/0703 32028KT
BECMG 0713/0715 30018KT



MET'MAP, la Météo Aéronautique d'un coup d'oeil ! - Copyright ORBIFLY Décembre 2007 - Disclaimer

ORBIFLY MET'MAP TEAM :

Programmation & Développement : Alexandra Zaïnal
Sur une idée originale de : Baudouin d'Aumeries
Assistance à la programmation : Marc-Olivier Méhu
Soutien technique & logistique : Manuel Goepfert

Contact : metmap@orbifly.com




SOURCES & CREDITS :

   NOAA